Saltillo, Texas
Current Conditions -  °F | °C
As of 2:55 PM on Tuesday 27 Jan 2015 (Local Time) from KSLR Reporting Station
Clear Clear  
Wind Chill: 76°   Ceiling: Unl
Heat Index: 77°   Visibility: 10mi
Dew Point: 36°   Wind: 0mph
Humidity: 23%   Direction: NA
Pressure: 30.13"   Gusts: NA
Location:  33.18°N, 95.33°W
Report Text: KSLR 272055Z AUTO 00000KT 10SM CLR 25/02 A3013 RMK AO2 T02450022
Loading
Personal Weather Stations






























Interactive Weather Map New forecast layout! Learn more

10-Day Weather Forecast

Advertisements
Track Severe Weather on mobile